Time;durP1;ratioP1;P1;durP2;ratioP2;P2;SDS_P1;SDS_P2;PMS_P1;PMS_P2;Temp;Humidity;BMP_temperature;BMP_pressure;BME280_temperature;BME280_humidity;BME280_pressure;Samples;Min_cycle;Max_cycle;Signal;HPM_P1;HPM_P2
2021/12/05 00:20:20;;;;;;;35.10;13.90;;;;;;;-0.55;100.00;98763.38;99756;1343;71008;-66
2021/12/05 00:22:58;;;;;;;41.40;15.60;;;;;;;-0.57;100.00;98767.33;99701;1340;68531;-66
2021/12/05 00:26:01;;;;;;;36.50;16.00;;;;;;;-0.57;100.00;98770.08;99854;1343;71904;-66
2021/12/05 00:35:21;;;;;;;41.70;16.00;;;;;;;-0.38;100.00;98773.60;99597;1343;72578;-66
2021/12/05 00:55:02;;;;;;;40.10;15.10;;;;;;;-0.24;99.76;98782.67;99863;1345;67198;-66
2021/12/05 01:07:11;;;;;;;36.10;13.90;;;;;;;-0.36;99.99;98787.79;99722;1340;73237;-66
2021/12/05 01:13:37;;;;;;;34.00;13.60;;;;;;;-0.28;100.00;98790.19;99918;1342;73279;-66
2021/12/05 01:16:32;;;;;;;32.90;13.50;;;;;;;-0.25;100.00;98793.02;100013;1343;59783;-66
2021/12/05 01:19:26;;;;;;;32.50;13.10;;;;;;;-0.25;100.00;98796.47;99961;1335;59660;-68
2021/12/05 01:22:18;;;;;;;35.40;12.90;;;;;;;-0.24;100.00;98797.81;99791;1340;72139;-66
2021/12/05 01:25:27;;;;;;;30.60;12.60;;;;;;;-0.27;99.99;98794.67;99752;1343;66690;-66
2021/12/05 01:44:40;;;;;;;36.30;13.50;;;;;;;-0.62;99.97;98802.06;99838;1343;70623;-66
2021/12/05 01:54:16;;;;;;;38.40;13.10;;;;;;;-0.76;100.00;98809.97;99678;1343;73558;-66
2021/12/05 01:57:40;;;;;;;36.60;14.30;;;;;;;-0.81;100.00;98816.63;99992;1343;68693;-66
2021/12/05 02:35:53;;;;;;;37.40;15.00;;;;;;;-0.86;100.00;98833.42;99754;1340;59783;-66
2021/12/05 02:42:15;;;;;;;39.20;15.00;;;;;;;-0.94;100.00;98836.95;99977;1343;73730;-66
2021/12/05 02:45:10;;;;;;;37.60;14.30;;;;;;;-0.95;100.00;98835.10;99684;1336;68455;-67
2021/12/05 02:48:00;;;;;;;35.70;14.20;;;;;;;-0.97;100.00;98834.15;99972;1342;71579;-66
2021/12/05 02:50:52;;;;;;;36.80;14.60;;;;;;;-0.96;100.00;98831.36;99649;1343;59946;-67
2021/12/05 02:53:57;;;;;;;32.50;13.20;;;;;;;-0.99;100.00;98836.18;99868;1342;59765;-66
2021/12/05 02:56:53;;;;;;;36.70;14.60;;;;;;;-1.04;100.00;98839.19;99774;1336;73598;-68
2021/12/05 02:59:56;;;;;;;35.20;13.30;;;;;;;-1.06;100.00;98843.30;99897;1343;68216;-66
2021/12/05 03:02:52;;;;;;;42.30;15.10;;;;;;;-1.07;100.00;98846.14;99740;1342;71943;-66
2021/12/05 03:05:55;;;;;;;36.90;14.40;;;;;;;-1.06;100.00;98842.23;99733;1340;59876;-66
2021/12/05 03:08:58;;;;;;;36.40;14.30;;;;;;;-1.06;100.00;98845.02;99979;1340;59651;-66
2021/12/05 03:11:58;;;;;;;37.70;13.60;;;;;;;-1.06;100.00;98840.69;100001;1340;72242;-66
2021/12/05 03:15:04;;;;;;;34.20;13.40;;;;;;;-1.08;100.00;98840.27;100006;1342;68261;-66
2021/12/05 03:17:56;;;;;;;38.20;14.20;;;;;;;-1.09;100.00;98848.99;99703;1342;71687;-66
2021/12/05 03:20:49;;;;;;;36.30;13.90;;;;;;;-1.08;100.00;98854.88;99993;1337;60106;-66
2021/12/05 03:23:45;;;;;;;35.80;14.30;;;;;;;-1.09;100.00;98861.02;99717;1342;60526;-66
2021/12/05 03:26:40;;;;;;;36.90;14.50;;;;;;;-1.07;100.00;98868.42;99035;1336;1002595;-66
2021/12/05 03:29:34;;;;;;;39.50;14.60;;;;;;;-1.09;100.00;98864.33;99965;1342;68682;-66
2021/12/05 03:32:24;;;;;;;46.80;18.50;;;;;;;-1.08;100.00;98863.95;99743;1342;73194;-66
2021/12/05 03:35:18;;;;;;;45.20;17.00;;;;;;;-1.05;100.00;98864.33;99855;1341;59928;-66
2021/12/05 03:38:08;;;;;;;45.40;17.20;;;;;;;-1.02;100.00;98856.16;99759;1342;60529;-66
2021/12/05 03:40:59;;;;;;;42.90;17.30;;;;;;;-1.00;100.00;98860.11;99761;1337;72315;-66
2021/12/05 03:43:55;;;;;;;42.00;16.20;;;;;;;-0.99;100.00;98861.23;99737;1342;68553;-66
2021/12/05 03:46:49;;;;;;;50.00;18.70;;;;;;;-0.98;100.00;98862.45;99945;1339;73459;-66
2021/12/05 03:49:40;;;;;;;63.50;21.70;;;;;;;-0.98;100.00;98864.14;99613;1342;59890;-66
2021/12/05 03:52:30;;;;;;;52.00;20.00;;;;;;;-0.95;100.00;98861.58;99734;1343;59800;-66
2021/12/05 03:55:21;;;;;;;51.60;18.10;;;;;;;-0.96;100.00;98861.77;100004;1340;73667;-66
2021/12/05 03:58:11;;;;;;;54.30;20.60;;;;;;;-0.96;100.00;98871.00;99944;1340;68475;-66
2021/12/05 04:01:31;;;;;;;51.40;20.00;;;;;;;-0.96;100.00;98877.63;99825;1340;71769;-66
2021/12/05 04:04:33;;;;;;;65.90;23.70;;;;;;;-0.98;100.00;98881.21;100196;1342;60190;-66
2021/12/05 04:07:26;;;;;;;57.20;20.40;;;;;;;-0.93;100.00;98881.99;98384;1345;1003207;-66
2021/12/05 04:10:17;;;;;;;59.90;23.80;;;;;;;-0.84;100.00;98884.02;99978;1342;73587;-66
2021/12/05 04:13:08;;;;;;;52.90;19.70;;;;;;;-0.74;100.00;98884.57;99580;1339;67393;-66
2021/12/05 04:16:05;;;;;;;55.40;21.10;;;;;;;-0.66;100.00;98881.05;99785;1342;73001;-66
2021/12/05 04:19:02;;;;;;;50.60;19.90;;;;;;;-0.59;100.00;98880.52;99757;1342;59839;-66
2021/12/05 04:22:01;;;;;;;52.40;20.60;;;;;;;-0.56;100.00;98883.15;99793;1342;59625;-66
2021/12/05 04:25:17;;;;;;;52.60;20.90;;;;;;;-0.55;100.00;98883.45;99923;1337;72211;-66
2021/12/05 04:28:09;;;;;;;62.70;22.70;;;;;;;-0.56;100.00;98882.95;99734;1337;67713;-66
2021/12/05 04:31:00;;;;;;;61.70;25.10;;;;;;;-0.58;100.00;98882.02;99842;1340;73078;-69
2021/12/05 04:33:54;;;;;;;54.30;22.30;;;;;;;-0.61;99.95;98882.85;100000;1342;59893;-67
2021/12/05 04:36:45;;;;;;;48.70;20.30;;;;;;;-0.58;100.00;98890.18;99712;1342;61267;-66
2021/12/05 04:39:37;;;;;;;50.90;20.90;;;;;;;-0.54;100.00;98891.42;99718;1339;71948;-66
2021/12/05 04:42:35;;;;;;;39.70;17.70;;;;;;;-0.52;100.00;98891.13;99822;1336;65866;-67
2021/12/05 04:45:32;;;;;;;47.60;18.90;;;;;;;-0.55;99.63;98889.17;99742;1343;73490;-67
2021/12/05 04:48:31;;;;;;;46.10;20.70;;;;;;;-0.59;99.47;98900.54;99792;1343;59847;-67
2021/12/05 04:51:30;;;;;;;50.30;22.20;;;;;;;-0.64;99.27;98904.08;99993;1339;59739;-67
2021/12/05 04:54:21;;;;;;;59.10;24.80;;;;;;;-0.69;99.02;98906.77;100007;1339;72413;-66
2021/12/05 04:57:12;;;;;;;63.80;26.90;;;;;;;-0.73;98.93;98911.14;99759;1343;68311;-67
2021/12/05 05:00:07;;;;;;;61.70;26.40;;;;;;;-0.72;99.55;98913.89;99762;1340;71612;-66
2021/12/05 05:02:58;;;;;;;56.30;25.00;;;;;;;-0.70;99.47;98917.45;99980;1337;59847;-67
2021/12/05 05:06:14;;;;;;;60.90;26.30;;;;;;;-0.71;99.24;98925.20;99722;1340;59720;-66
2021/12/05 05:08:58;;;;;;;55.50;23.50;;;;;;;-0.73;99.25;98929.64;99749;1337;72493;-66
2021/12/05 05:11:51;;;;;;;51.50;21.60;;;;;;;-0.73;99.67;98925.95;99802;1340;67008;-67
2021/12/05 05:14:49;;;;;;;53.60;24.10;;;;;;;-0.76;99.34;98922.45;100020;1343;73320;-68
2021/12/05 05:17:56;;;;;;;68.30;27.70;;;;;;;-0.83;99.24;98925.41;99974;1341;59875;-68
2021/12/05 05:21:12;;;;;;;77.70;29.10;;;;;;;-0.89;99.21;98927.95;99737;1343;60898;-67
2021/12/05 05:39:07;;;;;;;79.00;31.70;;;;;;;-0.93;99.78;98941.74;100035;1343;72885;-68
2021/12/05 05:50:01;;;;;;;64.30;25.90;;;;;;;-0.94;99.95;98970.20;99718;1336;59867;-66
2021/12/05 05:52:52;;;;;;;59.70;25.40;;;;;;;-0.91;100.00;98974.71;98485;1336;1003853;-67
2021/12/05 05:55:41;;;;;;;59.30;25.80;;;;;;;-0.89;100.00;98974.64;100138;1336;72223;-66
2021/12/05 05:59:14;;;;;;;62.10;26.60;;;;;;;-0.91;99.82;98979.77;100037;1337;68265;-66
2021/12/05 06:04:38;;;;;;;69.50;29.80;;;;;;;-1.01;99.60;98977.15;99837;1337;59741;-66
2021/12/05 06:07:28;;;;;;;71.50;29.20;;;;;;;-1.07;99.85;98981.06;100094;1337;60751;-66
2021/12/05 06:10:27;;;;;;;68.40;28.00;;;;;;;-1.11;99.90;98986.29;100108;1336;70962;-66
2021/12/05 06:13:20;;;;;;;60.30;25.80;;;;;;;-1.11;99.92;98992.76;99854;1340;68814;-67
2021/12/05 06:16:12;;;;;;;55.90;24.00;;;;;;;-1.13;99.97;98996.50;99906;1336;72774;-67
2021/12/05 06:19:02;;;;;;;51.70;23.80;;;;;;;-1.17;100.00;98995.96;100116;1335;59838;-66
2021/12/05 06:21:52;;;;;;;54.20;23.80;;;;;;;-1.21;100.00;99002.75;99976;1339;59727;-66
2021/12/05 06:24:41;;;;;;;56.80;24.00;;;;;;;-1.25;100.00;99005.19;100111;1336;73589;-66
2021/12/05 06:27:31;;;;;;;48.00;22.00;;;;;;;-1.29;100.00;99013.44;99729;1339;66200;-68
2021/12/05 06:36:56;;;;;;;65.00;27.30;;;;;;;-1.35;100.00;99022.05;100262;1339;59730;-67
2021/12/05 06:43:05;;;;;;;55.10;24.90;;;;;;;-1.34;100.00;99024.77;100090;1340;68339;-66
2021/12/05 06:46:20;;;;;;;48.20;23.10;;;;;;;-1.35;100.00;99026.59;100677;1340;70380;-67
2021/12/05 06:49:20;;;;;;;53.80;23.40;;;;;;;-1.38;100.00;99033.14;100269;1337;59835;-67
2021/12/05 06:52:15;;;;;;;53.00;23.20;;;;;;;-1.41;100.00;99034.51;99924;1337;60925;-67
2021/12/05 06:55:13;;;;;;;70.70;29.50;;;;;;;-1.44;100.00;99036.52;100120;1336;71410;-67
2021/12/05 06:58:04;;;;;;;68.50;29.20;;;;;;;-1.45;100.00;99040.56;100207;1339;66931;-69
2021/12/05 07:00:54;;;;;;;62.70;27.10;;;;;;;-1.43;100.00;99040.48;99906;1336;71018;-67
2021/12/05 07:03:48;;;;;;;54.20;24.70;;;;;;;-1.40;100.00;99044.90;99961;1339;59886;-67
2021/12/05 07:06:41;;;;;;;56.80;24.40;;;;;;;-1.37;100.00;99046.13;99748;1337;59831;-68
2021/12/05 07:09:34;;;;;;;53.90;23.40;;;;;;;-1.34;100.00;99043.73;99753;1336;73452;-68
2021/12/05 07:15:30;;;;;;;50.80;23.60;;;;;;;-1.33;100.00;99055.19;100114;1337;70380;-67
2021/12/05 07:24:37;;;;;;;59.50;27.10;;;;;;;-1.29;99.96;99072.43;99972;1337;73553;-67
2021/12/05 07:43:03;;;;;;;58.00;25.70;;;;;;;-1.01;99.78;99088.25;98668;1340;2003182;-67
2021/12/05 07:45:57;;;;;;;64.30;29.30;;;;;;;-0.96;99.79;99088.16;98744;1337;2002988;-67
2021/12/05 07:48:47;;;;;;;64.40;28.30;;;;;;;-0.89;99.69;99096.59;99781;1333;59832;-68
2021/12/05 07:51:44;;;;;;;53.60;23.30;;;;;;;-0.79;99.78;99100.61;99961;1336;60699;-67
2021/12/05 07:54:43;;;;;;;49.20;22.50;;;;;;;-0.62;99.70;99096.89;100138;1340;72275;-67
2021/12/05 07:57:45;;;;;;;41.60;20.70;;;;;;;-0.49;99.41;99104.98;100130;1336;68241;-67
2021/12/05 08:00:39;;;;;;;37.90;17.90;;;;;;;-0.41;98.99;99107.17;99961;1336;71861;-68
2021/12/05 08:16:13;;;;;;;37.20;18.80;;;;;;;-0.02;97.56;99126.79;99922;1336;71823;-67
2021/12/05 08:19:07;;;;;;;37.90;18.40;;;;;;;0.08;96.89;99130.99;100300;1340;59764;-68
2021/12/05 08:22:01;;;;;;;33.70;15.80;;;;;;;0.12;96.42;99127.66;100268;1342;60717;-69
2021/12/05 08:25:09;;;;;;;39.80;17.90;;;;;;;0.16;96.38;99130.27;100288;1336;73324;-71
2021/12/05 08:31:16;;;;;;;37.30;18.50;;;;;;;0.26;96.26;99136.91;100178;1339;73212;-69
2021/12/05 08:40:33;;;;;;;35.00;17.20;;;;;;;0.42;94.90;99149.40;100130;1336;72314;-67
2021/12/05 08:43:41;;;;;;;34.40;16.40;;;;;;;0.48;94.57;99145.77;100334;1340;65682;-66
2021/12/05 09:22:15;;;;;;;53.60;22.50;;;;;;;1.01;92.60;99164.33;100023;1341;59844;-67
2021/12/05 09:25:21;;;;;;;51.60;22.00;;;;;;;1.08;92.20;99157.87;100052;1337;59845;-66
2021/12/05 09:28:52;;;;;;;97.40;32.50;;;;;;;1.11;91.60;99161.37;100114;1337;73760;-66
2021/12/05 09:51:44;;;;;;;40.70;19.20;;;;;;;1.37;88.98;99161.37;100177;1340;73130;-68
2021/12/05 10:10:30;;;;;;;31.70;17.50;;;;;;;1.42;87.11;99153.63;99826;1340;59651;-67
2021/12/05 10:17:20;;;;;;;26.80;14.40;;;;;;;1.43;86.41;99146.17;99811;1337;72419;-68
2021/12/05 10:26:03;;;;;;;29.80;14.90;;;;;;;1.46;86.53;99158.62;100337;1336;68490;-68
2021/12/05 10:36:26;;;;;;;80.10;28.60;;;;;;;1.44;87.01;99159.96;100181;1339;67082;-68
2021/12/05 10:39:23;;;;;;;58.20;21.70;;;;;;;1.48;86.78;99159.41;100003;1339;73163;-67
2021/12/05 10:42:44;;;;;;;56.80;21.90;;;;;;;1.49;86.99;99158.84;99872;1343;59747;-68
2021/12/05 10:45:42;;;;;;;72.00;25.30;;;;;;;1.50;87.08;99159.11;100111;1337;59830;-67
2021/12/05 10:48:40;;;;;;;77.80;27.20;;;;;;;1.49;86.92;99160.02;99912;1340;73267;-67
2021/12/05 10:51:39;;;;;;;66.70;26.20;;;;;;;1.51;87.29;99158.16;99906;1340;67699;-68
2021/12/05 10:54:38;;;;;;;56.50;23.50;;;;;;;1.51;87.41;99151.54;100297;1340;72269;-68
2021/12/05 10:57:30;;;;;;;49.80;20.60;;;;;;;1.51;87.31;99150.65;99919;1339;60904;-67
2021/12/05 11:00:20;;;;;;;38.60;19.10;;;;;;;1.52;86.58;99158.64;99667;1337;60792;-67
2021/12/05 11:03:24;;;;;;;38.50;17.30;;;;;;;1.52;86.68;99154.98;99820;1343;73836;-67
2021/12/05 11:06:39;;;;;;;31.90;16.00;;;;;;;1.56;87.01;99151.26;100030;1340;66986;-67
2021/12/05 11:09:47;;;;;;;30.90;15.10;;;;;;;1.59;86.61;99153.90;100411;1343;72839;-68
2021/12/05 11:12:40;;;;;;;31.00;14.90;;;;;;;1.62;86.15;99154.81;100119;1342;59844;-67
2021/12/05 11:15:35;;;;;;;26.70;14.30;;;;;;;1.64;85.55;99156.58;99928;1337;59800;-67
2021/12/05 11:18:44;;;;;;;28.50;14.40;;;;;;;1.69;85.71;99157.89;99848;1339;73316;-67
2021/12/05 11:21:36;;;;;;;28.50;15.00;;;;;;;1.75;85.00;99160.59;100255;1337;68430;-67
2021/12/05 11:24:34;;;;;;;27.60;14.40;;;;;;;1.77;84.69;99162.90;100032;1340;73229;-68
2021/12/05 11:27:37;;;;;;;30.20;15.30;;;;;;;1.79;84.43;99161.39;100330;1340;59869;-68
2021/12/05 11:30:32;;;;;;;32.80;15.90;;;;;;;1.79;83.64;99166.61;100119;1336;59740;-67
2021/12/05 11:33:24;;;;;;;31.30;15.60;;;;;;;1.77;83.43;99166.38;100078;1340;73955;-67
2021/12/05 11:36:26;;;;;;;36.60;18.00;;;;;;;1.75;83.67;99174.00;99747;1343;67021;-67
2021/12/05 11:39:23;;;;;;;34.80;16.40;;;;;;;1.79;83.78;99183.41;100102;1337;72016;-67
2021/12/05 11:42:21;;;;;;;37.00;16.20;;;;;;;1.84;83.78;99185.91;99997;1343;59768;-68
2021/12/05 11:45:13;;;;;;;37.40;16.90;;;;;;;1.85;83.55;99184.95;100069;1336;61404;-67
2021/12/05 11:48:17;;;;;;;37.60;17.80;;;;;;;1.82;82.69;99188.31;99714;1339;71858;-67
2021/12/05 11:51:47;;;;;;;33.80;16.70;;;;;;;1.76;82.60;99191.79;99770;1339;67052;-67
2021/12/05 11:54:46;;;;;;;31.10;15.10;;;;;;;1.70;82.65;99198.25;99860;1337;73563;-67
2021/12/05 11:57:40;;;;;;;33.40;16.20;;;;;;;1.66;82.80;99200.91;99958;1340;59825;-68
2021/12/05 12:00:34;;;;;;;34.10;16.00;;;;;;;1.60;82.64;99198.97;100024;1337;59724;-67
2021/12/05 12:03:36;;;;;;;36.70;18.80;;;;;;;1.58;83.80;99203.29;99802;1339;72394;-69
2021/12/05 12:06:44;;;;;;;34.30;17.30;;;;;;;1.58;83.21;99203.61;100011;1343;67019;-67
2021/12/05 12:09:38;;;;;;;37.40;17.60;;;;;;;1.59;83.69;99208.96;100344;1340;71916;-67
2021/12/05 12:12:28;;;;;;;31.50;15.60;;;;;;;1.61;83.93;99214.83;99884;1340;59727;-66
2021/12/05 12:15:19;;;;;;;31.90;16.50;;;;;;;1.57;83.48;99215.89;99713;1339;59839;-67
2021/12/05 12:18:27;;;;;;;33.60;15.80;;;;;;;1.47;83.26;99217.11;99928;1340;73518;-68
2021/12/05 12:21:41;;;;;;;28.30;14.50;;;;;;;1.40;83.91;99228.00;100064;1336;68029;-69
2021/12/05 12:24:32;;;;;;;27.20;13.90;;;;;;;1.33;84.34;99229.43;100298;1337;73366;-68
2021/12/05 12:27:24;;;;;;;30.90;14.80;;;;;;;1.27;84.67;99236.73;99836;1336;59812;-68
2021/12/05 12:30:24;;;;;;;33.90;15.50;;;;;;;1.24;85.01;99232.02;100027;1339;59731;-67
2021/12/05 12:33:34;;;;;;;47.50;19.20;;;;;;;1.22;85.68;99230.33;99878;1336;72229;-68
2021/12/05 12:36:49;;;;;;;48.60;21.10;;;;;;;1.21;85.75;99233.58;99877;1336;66846;-67
2021/12/05 12:39:51;;;;;;;49.60;22.60;;;;;;;1.19;86.10;99230.65;100099;1340;71640;-67
2021/12/05 12:42:42;;;;;;;43.80;20.50;;;;;;;1.23;86.08;99229.39;99991;1336;60171;-67
2021/12/05 12:45:41;;;;;;;42.40;18.60;;;;;;;1.29;86.65;99232.95;100018;1336;60783;-67
2021/12/05 12:48:31;;;;;;;36.80;17.10;;;;;;;1.34;87.05;99233.75;100005;1337;73787;-67
2021/12/05 12:51:44;;;;;;;47.80;21.20;;;;;;;1.36;87.65;99232.58;99997;1337;67102;-68
2021/12/05 12:54:43;;;;;;;48.60;19.20;;;;;;;1.35;87.98;99234.17;99896;1340;73357;-67
2021/12/05 12:57:40;;;;;;;47.10;19.10;;;;;;;1.34;88.36;99232.14;100171;1337;59741;-67
2021/12/05 13:00:46;;;;;;;44.00;18.20;;;;;;;1.33;88.39;99235.55;100042;1336;59772;-67
2021/12/05 13:04:28;;;;;;;59.20;20.30;;;;;;;1.32;88.72;99234.35;99998;1339;73813;-68
2021/12/05 13:11:04;;;;;;;42.10;18.50;;;;;;;1.37;89.12;99234.27;100212;1337;72959;-67
2021/12/05 13:14:06;;;;;;;40.70;16.10;;;;;;;1.42;89.16;99236.48;100189;1337;59640;-67
2021/12/05 13:16:59;;;;;;;38.50;15.90;;;;;;;1.43;89.12;99240.09;99832;1339;61078;-68
2021/12/05 13:20:00;;;;;;;40.00;16.10;;;;;;;1.41;89.08;99243.33;100258;1336;72422;-68
2021/12/05 13:23:05;;;;;;;46.60;17.00;;;;;;;1.41;89.32;99241.78;99928;1339;68738;-67
2021/12/05 13:26:19;;;;;;;37.70;14.90;;;;;;;1.36;88.72;99243.27;100165;1342;71537;-69
2021/12/05 13:29:19;;;;;;;43.30;15.50;;;;;;;1.30;89.12;99244.76;100256;1340;59756;-68
2021/12/05 13:32:23;;;;;;;48.90;17.80;;;;;;;1.28;89.28;99251.50;99882;1340;395366;-67
2021/12/05 13:35:24;;;;;;;54.60;18.80;;;;;;;1.25;89.32;99255.38;99977;1340;73257;-67
2021/12/05 13:38:39;;;;;;;48.80;17.60;;;;;;;1.23;89.16;99260.35;99992;1337;65831;-67
2021/12/05 13:41:29;;;;;;;39.80;16.10;;;;;;;1.23;89.05;99264.03;100029;1339;72894;-69
2021/12/05 13:44:19;;;;;;;35.00;14.10;;;;;;;1.25;88.92;99267.61;99861;1340;59761;-69
2021/12/05 13:47:18;;;;;;;31.80;12.70;;;;;;;1.27;88.81;99266.25;99784;1340;60223;-67
2021/12/05 13:50:32;;;;;;;35.40;15.70;;;;;;;1.27;88.42;99265.06;99904;1337;73379;-68
2021/12/05 13:53:27;;;;;;;32.00;14.50;;;;;;;1.24;87.90;99270.43;99476;1342;66789;-67
2021/12/05 13:56:26;;;;;;;34.40;15.60;;;;;;;1.22;87.90;99272.48;99330;1342;73090;-67
2021/12/05 13:59:14;;;;;;;34.30;15.40;;;;;;;1.17;87.45;99276.39;99523;1345;59605;-66
2021/12/05 14:02:04;;;;;;;36.00;15.90;;;;;;;1.18;87.58;99284.36;99330;1342;59695;-68
2021/12/05 14:04:53;;;;;;;35.00;14.90;;;;;;;1.19;87.44;99285.70;99268;1346;72122;-67
2021/12/05 14:07:42;;;;;;;37.90;15.60;;;;;;;1.19;87.34;99289.55;99513;1349;68471;-67
2021/12/05 14:10:44;;;;;;;32.50;14.50;;;;;;;1.16;87.21;99290.23;99331;1342;73640;-67
2021/12/05 14:13:35;;;;;;;29.90;14.80;;;;;;;1.11;87.23;99297.14;99238;1348;59957;-67
2021/12/05 14:16:38;;;;;;;40.40;17.10;;;;;;;1.07;87.54;99302.42;99340;1349;59628;-67
2021/12/05 14:19:32;;;;;;;34.00;15.00;;;;;;;1.04;87.71;99309.91;99278;1342;72326;-68
2021/12/05 14:22:25;;;;;;;34.50;15.30;;;;;;;1.01;88.05;99313.89;99347;1349;67324;-67
2021/12/05 14:25:23;;;;;;;37.90;17.00;;;;;;;0.98;88.09;99317.35;99383;1345;71906;-68
2021/12/05 14:28:13;;;;;;;38.30;17.80;;;;;;;0.96;88.36;99316.77;99646;1343;59717;-67
2021/12/05 14:31:03;;;;;;;38.20;17.40;;;;;;;0.95;88.41;99319.41;99884;1342;60460;-68
2021/12/05 14:33:54;;;;;;;37.70;16.40;;;;;;;0.96;88.79;99318.99;100514;1336;73487;-68
2021/12/05 14:37:15;;;;;;;40.40;17.70;;;;;;;1.01;88.64;99320.53;99988;1337;67082;-68
2021/12/05 14:40:10;;;;;;;31.80;14.90;;;;;;;1.04;88.68;99325.63;100144;1336;73697;-68
2021/12/05 14:43:04;;;;;;;38.20;15.60;;;;;;;1.05;88.65;99333.45;99783;1339;60075;-68
2021/12/05 14:45:53;;;;;;;35.30;14.00;;;;;;;1.04;88.66;99335.23;100185;1337;59771;-67
2021/12/05 14:48:44;;;;;;;34.10;15.60;;;;;;;1.03;88.79;99335.14;99972;1340;71838;-66
2021/12/05 14:51:40;;;;;;;34.40;16.40;;;;;;;1.02;88.89;99336.73;100067;1336;68763;-67
2021/12/05 14:54:36;;;;;;;33.70;15.50;;;;;;;0.99;89.09;99336.88;100077;1339;71814;-67
2021/12/05 14:57:39;;;;;;;37.40;17.20;;;;;;;0.97;89.22;99336.97;99848;1338;59898;-67
2021/12/05 15:00:35;;;;;;;34.10;17.10;;;;;;;0.96;89.57;99343.14;100267;1335;59682;-67
2021/12/05 15:03:29;;;;;;;34.50;15.40;;;;;;;0.95;89.55;99342.61;100152;1337;73736;-67
2021/12/05 15:06:19;;;;;;;35.50;15.70;;;;;;;0.96;89.76;99345.91;99814;1339;68433;-67
2021/12/05 15:09:39;;;;;;;30.90;14.40;;;;;;;0.99;89.70;99348.38;100352;1337;73261;-67
2021/12/05 15:12:34;;;;;;;30.40;14.20;;;;;;;1.01;89.66;99346.73;99704;1342;59920;-66
2021/12/05 15:15:26;;;;;;;28.60;12.20;;;;;;;1.01;89.66;99349.16;99757;1346;59811;-67
2021/12/05 15:18:28;;;;;;;26.40;13.10;;;;;;;0.99;89.53;99350.66;99476;1342;73668;-67
2021/12/05 15:21:18;;;;;;;23.40;11.80;;;;;;;0.97;89.45;99351.46;99644;1349;68092;-67
2021/12/05 15:24:16;;;;;;;31.10;15.90;;;;;;;0.94;89.59;99354.95;99460;1348;73186;-68
2021/12/05 15:27:14;;;;;;;30.20;15.40;;;;;;;0.95;90.01;99356.48;99411;1346;59743;-66
2021/12/05 15:30:24;;;;;;;22.70;10.70;;;;;;;0.97;89.85;99356.36;99357;1342;60907;-66
2021/12/05 15:33:28;;;;;;;27.90;13.10;;;;;;;0.96;89.90;99357.61;99606;1343;70857;-67
2021/12/05 15:36:17;;;;;;;26.30;12.30;;;;;;;0.98;90.30;99363.83;99297;1348;68421;-67
2021/12/05 15:39:19;;;;;;;30.90;13.60;;;;;;;1.00;90.45;99371.75;99299;1345;72384;-67
2021/12/05 15:42:24;;;;;;;31.70;15.10;;;;;;;1.03;90.49;99374.06;99608;1349;59774;-67
2021/12/05 15:45:16;;;;;;;25.30;13.20;;;;;;;1.04;90.35;99374.70;99576;1349;60808;-68
2021/12/05 15:48:05;;;;;;;29.00;14.10;;;;;;;1.04;90.50;99380.31;99560;1343;74311;-66
2021/12/05 15:50:56;;;;;;;53.40;19.50;;;;;;;1.04;90.50;99380.14;99845;1340;67225;-67
2021/12/05 15:53:46;;;;;;;45.00;18.40;;;;;;;1.06;90.54;99377.77;99680;1339;71795;-68
2021/12/05 15:56:35;;;;;;;38.80;15.80;;;;;;;1.07;90.53;99379.81;99873;1337;59792;-67
2021/12/05 15:59:24;;;;;;;37.10;16.30;;;;;;;1.08;90.56;99380.11;100103;1334;59678;-66
2021/12/05 16:02:21;;;;;;;39.80;16.40;;;;;;;1.09;90.30;99380.75;99862;1337;72156;-67
2021/12/05 16:05:24;;;;;;;34.30;14.70;;;;;;;1.09;90.23;99379.71;100117;1336;67097;-66
2021/12/05 16:08:17;;;;;;;36.70;14.70;;;;;;;1.08;90.12;99375.71;99975;1336;72319;-66
2021/12/05 16:11:18;;;;;;;27.70;12.50;;;;;;;1.08;90.14;99380.61;99903;1336;60175;-69
2021/12/05 16:14:08;;;;;;;34.50;15.50;;;;;;;1.06;90.01;99380.05;100195;1337;59680;-67
2021/12/05 16:16:58;;;;;;;33.50;15.10;;;;;;;1.05;90.11;99382.88;99831;1340;72749;-67
2021/12/05 16:20:16;;;;;;;37.70;15.50;;;;;;;1.06;90.14;99385.80;99938;1339;68201;-67
2021/12/05 16:23:26;;;;;;;33.20;13.50;;;;;;;1.09;90.18;99390.02;100035;1337;73250;-67
2021/12/05 16:26:26;;;;;;;33.60;14.80;;;;;;;1.09;90.20;99396.31;100197;1340;59737;-67
2021/12/05 16:29:24;;;;;;;35.10;14.40;;;;;;;1.10;90.55;99392.61;99828;1339;59920;-68
2021/12/05 16:32:18;;;;;;;40.50;16.40;;;;;;;1.13;90.92;99394.70;99771;1342;73524;-68
2021/12/05 16:35:46;;;;;;;38.30;15.10;;;;;;;1.14;91.08;99393.77;99979;1337;68291;-66
2021/12/05 16:38:44;;;;;;;38.30;18.00;;;;;;;1.12;91.02;99397.35;99884;1336;70519;-66
2021/12/05 16:41:36;;;;;;;34.10;16.50;;;;;;;1.14;90.90;99396.77;100116;1340;59733;-68
2021/12/05 16:44:31;;;;;;;31.30;14.50;;;;;;;1.15;90.90;99398.08;100109;1336;59729;-66
2021/12/05 16:47:28;;;;;;;29.60;13.10;;;;;;;1.20;91.06;99398.73;99932;1340;72087;-66
2021/12/05 16:50:21;;;;;;;29.50;14.30;;;;;;;1.21;90.85;99396.40;99944;1336;67400;-67
2021/12/05 16:53:13;;;;;;;27.10;13.20;;;;;;;1.24;90.79;99399.95;99868;1337;71742;-66
2021/12/05 16:56:04;;;;;;;24.80;11.90;;;;;;;1.25;90.53;99399.02;100227;1338;59733;-67
2021/12/05 16:59:28;;;;;;;24.80;11.20;;;;;;;1.25;90.48;99404.25;100247;1340;60653;-67
2021/12/05 17:02:27;;;;;;;27.70;12.30;;;;;;;1.23;90.79;99406.63;99882;1340;73444;-67
2021/12/05 17:05:33;;;;;;;23.30;10.80;;;;;;;1.23;90.64;99410.14;100139;1337;68536;-69
2021/12/05 17:08:28;;;;;;;26.60;11.50;;;;;;;1.23;90.71;99414.83;100161;1340;73458;-67
2021/12/05 17:11:26;;;;;;;26.20;11.90;;;;;;;1.25;90.82;99420.70;100163;1339;59825;-66
2021/12/05 17:14:26;;;;;;;26.60;11.70;;;;;;;1.27;90.76;99421.45;100333;1340;60861;-67
2021/12/05 17:17:34;;;;;;;23.20;11.10;;;;;;;1.28;90.79;99427.52;99852;1336;73600;-67
2021/12/05 17:21:00;;;;;;;25.80;12.40;;;;;;;1.28;90.78;99431.18;99898;1340;68437;-67
2021/12/05 17:24:02;;;;;;;27.40;12.50;;;;;;;1.29;90.80;99437.29;100133;1343;71836;-66
2021/12/05 17:26:59;;;;;;;25.30;12.00;;;;;;;1.31;90.69;99436.84;100348;1336;59651;-66
2021/12/05 17:29:50;;;;;;;21.30;8.80;;;;;;;1.33;90.56;99437.75;99803;1340;60480;-66
2021/12/05 17:32:39;;;;;;;23.50;11.50;;;;;;;1.34;90.23;99441.38;99847;1343;72037;-67
2021/12/05 17:35:34;;;;;;;24.50;10.70;;;;;;;1.33;90.19;99446.34;99758;1342;68384;-68
2021/12/05 17:38:35;;;;;;;24.40;11.50;;;;;;;1.34;90.13;99444.89;99998;1341;71960;-66
2021/12/05 17:41:29;;;;;;;23.50;10.30;;;;;;;1.32;90.39;99449.18;99875;1337;61278;-68
2021/12/05 17:44:19;;;;;;;27.90;12.70;;;;;;;1.30;90.36;99446.84;100027;1343;59762;-67
2021/12/05 17:47:16;;;;;;;24.20;11.50;;;;;;;1.30;90.33;99453.10;100184;1336;73187;-66
2021/12/05 17:50:16;;;;;;;20.80;10.00;;;;;;;1.32;90.32;99450.60;99891;1340;69030;-67
2021/12/05 17:53:08;;;;;;;20.70;9.00;;;;;;;1.31;89.83;99448.85;99898;1337;70804;-67
2021/12/05 17:56:15;;;;;;;20.70;10.00;;;;;;;1.31;90.11;99452.00;99995;1337;59832;-66
2021/12/05 17:59:25;;;;;;;22.80;9.80;;;;;;;1.30;90.11;99455.73;100469;1337;60463;-66
2021/12/05 18:05:45;;;;;;;24.30;10.30;;;;;;;1.27;89.95;99462.35;100177;1342;66812;-67
2021/12/05 18:08:47;;;;;;;23.10;10.70;;;;;;;1.25;90.08;99462.09;100206;1342;71801;-66
2021/12/05 18:11:40;;;;;;;22.80;10.30;;;;;;;1.29;90.12;99469.61;99866;1342;59735;-67
2021/12/05 18:14:31;;;;;;;20.80;9.60;;;;;;;1.30;89.84;99469.88;99979;1343;60765;-68
2021/12/05 18:17:21;;;;;;;21.20;9.70;;;;;;;1.31;89.80;99479.30;99806;1340;72097;-67
2021/12/05 18:20:22;;;;;;;19.90;9.20;;;;;;;1.28;89.66;99475.77;99995;1343;67461;-67
2021/12/05 18:23:12;;;;;;;20.80;9.50;;;;;;;1.26;89.77;99479.71;99990;1340;70857;-68
2021/12/05 18:26:05;;;;;;;20.20;8.90;;;;;;;1.26;89.55;99486.38;99768;1340;59854;-68
2021/12/05 18:28:55;;;;;;;23.00;10.40;;;;;;;1.23;89.86;99485.79;100151;1340;59755;-66
2021/12/05 18:31:47;;;;;;;22.00;10.50;;;;;;;1.25;89.87;99488.34;99866;1342;71964;-67